Time;durP1;ratioP1;P1;durP2;ratioP2;P2;SDS_P1;SDS_P2;PMS_P1;PMS_P2;Temp;Humidity;BMP_temperature;BMP_pressure;BME280_temperature;BME280_humidity;BME280_pressure;Samples;Min_cycle;Max_cycle;Signal;HPM_P1;HPM_P2
2022/09/26 00:00:18;;;;;;;12.20;8.50;;;15.90;83.40;;;-142.21;100.00;112049.66;5052151;28;21003;-71
2022/09/26 00:02:45;;;;;;;9.83;8.30;;;15.90;83.60;;;-142.21;100.00;112049.66;5052430;28;20480;-70
2022/09/26 00:05:14;;;;;;;10.27;8.57;;;15.80;83.50;;;-142.21;100.00;112049.66;5051815;28;20444;-71
2022/09/26 00:07:41;;;;;;;11.07;7.93;;;15.80;83.30;;;-142.21;100.00;112049.66;5053238;28;20539;-71
2022/09/26 00:10:09;;;;;;;8.33;7.50;;;15.80;83.70;;;-142.21;100.00;112049.66;5051920;28;20993;-70
2022/09/26 00:12:36;;;;;;;11.67;8.03;;;15.80;83.60;;;-142.21;100.00;112049.66;5053186;28;20454;-70
2022/09/26 00:15:04;;;;;;;13.00;8.57;;;15.70;83.60;;;-142.21;100.00;112049.66;5052780;28;20459;-70
2022/09/26 00:17:31;;;;;;;10.47;8.37;;;15.70;83.60;;;-142.21;100.00;112049.66;5053159;28;20486;-70
2022/09/26 00:19:58;;;;;;;9.50;8.27;;;15.70;83.60;;;-142.21;100.00;112049.66;5053057;28;20484;-70
2022/09/26 00:22:28;;;;;;;9.67;7.63;;;15.70;83.50;;;-142.21;100.00;112049.66;5051955;28;20476;-70
2022/09/26 00:24:55;;;;;;;11.37;7.77;;;15.70;83.60;;;-142.21;100.00;112049.66;5052704;28;20455;-70
2022/09/26 00:27:22;;;;;;;10.40;7.33;;;15.60;83.50;;;-142.21;100.00;112049.66;5051867;28;20441;-70
2022/09/26 00:29:50;;;;;;;9.43;7.97;;;15.60;83.50;;;-142.21;100.00;112049.66;5052861;28;20448;-71
2022/09/26 00:32:17;;;;;;;14.30;7.93;;;15.60;83.60;;;-142.21;100.00;112049.66;5051964;28;20563;-70
2022/09/26 00:34:44;;;;;;;13.83;7.83;;;15.60;83.80;;;-142.21;100.00;112049.66;5052720;28;20914;-71
2022/09/26 00:37:11;;;;;;;8.97;6.60;;;15.60;83.80;;;-142.21;100.00;112049.66;5051909;28;20515;-71
2022/09/26 00:39:39;;;;;;;10.30;8.03;;;15.50;84.10;;;-142.21;100.00;112049.66;5051995;28;20527;-70
2022/09/26 00:42:07;;;;;;;10.00;7.27;;;15.50;84.50;;;-142.21;100.00;112049.66;5050610;28;20455;-70
2022/09/26 00:44:47;;;;;;;21.50;8.60;;;15.40;84.30;;;-142.21;100.00;112049.66;5052274;28;20444;-70
2022/09/26 00:47:40;;;;;;;8.97;7.00;;;15.40;84.30;;;-142.21;100.00;112049.66;5052147;28;20822;-70
2022/09/26 00:50:18;;;;;;;9.30;7.67;;;15.50;84.50;;;-142.21;100.00;112049.66;5052044;28;20460;-71
2022/09/26 00:52:55;;;;;;;9.13;7.03;;;15.50;84.50;;;-142.21;100.00;112049.66;5036476;28;20916;-71
2022/09/26 00:55:29;;;;;;;10.20;7.37;;;15.40;84.50;;;-142.21;100.00;112049.66;5051933;28;20440;-71
2022/09/26 00:58:04;;;;;;;11.60;8.00;;;15.40;84.50;;;-142.21;100.00;112049.66;5052090;28;20802;-70
2022/09/26 01:00:31;;;;;;;9.77;7.90;;;15.40;84.60;;;-142.21;100.00;112049.66;5050887;28;20468;-70
2022/09/26 01:02:59;;;;;;;10.43;7.83;;;15.40;84.40;;;-142.21;100.00;112049.66;5051713;28;20476;-71
2022/09/26 01:05:26;;;;;;;9.70;7.60;;;15.40;84.70;;;-142.21;100.00;112049.66;5051313;28;20451;-70
2022/09/26 01:07:56;;;;;;;10.67;7.90;;;15.40;84.80;;;-142.21;100.00;112049.66;5051778;28;20451;-70
2022/09/26 01:10:25;;;;;;;8.80;7.67;;;15.40;84.90;;;-142.21;100.00;112049.66;5051170;28;20460;-70
2022/09/26 01:12:53;;;;;;;11.13;8.00;;;15.40;85.00;;;-142.21;100.00;112049.66;5051791;28;20455;-71
2022/09/26 01:15:20;;;;;;;11.00;8.30;;;15.30;85.20;;;-142.21;100.00;112049.66;5051258;28;20535;-69
2022/09/26 01:17:48;;;;;;;12.53;7.87;;;15.30;85.10;;;-142.21;100.00;112049.66;5051635;28;21027;-70
2022/09/26 01:20:29;;;;;;;8.33;7.40;;;15.30;85.10;;;-142.21;100.00;112049.66;5051048;28;21073;-70
2022/09/26 01:23:44;;;;;;;9.50;8.47;;;15.30;85.10;;;-142.21;100.00;112049.66;5051017;28;20527;-70
2022/09/26 01:27:08;;;;;;;10.47;8.17;;;15.30;85.20;;;-142.21;100.00;112049.66;5002538;28;20435;-71
2022/09/26 01:30:06;;;;;;;8.87;7.47;;;15.30;85.00;;;-142.21;100.00;112049.66;5031004;28;20467;-69
2022/09/26 01:32:58;;;;;;;11.17;7.33;;;15.30;85.50;;;-142.21;100.00;112049.66;5051481;28;20958;-70
2022/09/26 01:35:58;;;;;;;8.47;7.47;;;15.30;84.80;;;-142.21;100.00;112049.66;5051172;28;20494;-70
2022/09/26 01:38:43;;;;;;;8.93;7.70;;;15.30;85.00;;;-142.21;100.00;112049.66;5050207;28;21195;-71
2022/09/26 01:41:32;;;;;;;8.23;6.90;;;15.30;84.90;;;-142.21;100.00;112049.66;5050630;28;20468;-69
2022/09/26 01:44:29;;;;;;;8.27;7.20;;;15.20;85.20;;;-142.21;100.00;112049.66;5021762;28;20449;-70
2022/09/26 01:47:10;;;;;;;8.80;7.30;;;15.20;85.10;;;-142.21;100.00;112049.66;5038963;28;20987;-71
2022/09/26 01:49:52;;;;;;;9.80;6.77;;;15.30;84.90;;;-142.21;100.00;112049.66;5051641;28;20450;-71
2022/09/26 01:52:28;;;;;;;7.70;6.40;;;15.30;84.80;;;-142.21;100.00;112049.66;5016544;28;20454;-70
2022/09/26 01:55:07;;;;;;;8.90;7.03;;;15.20;84.70;;;-142.21;100.00;112049.66;5051189;28;20443;-70
2022/09/26 01:57:41;;;;;;;7.63;6.87;;;15.20;84.80;;;-142.21;100.00;112049.66;5051423;28;20440;-71
2022/09/26 02:00:11;;;;;;;10.17;6.33;;;15.30;84.80;;;-142.21;100.00;112049.66;5004387;28;20694;-71
2022/09/26 02:02:44;;;;;;;9.53;6.33;;;15.30;84.40;;;-142.21;100.00;112049.66;5043594;28;20492;-71
2022/09/26 02:05:23;;;;;;;10.03;7.13;;;15.30;84.40;;;-142.21;100.00;112049.66;5050582;28;20535;-71
2022/09/26 02:07:58;;;;;;;9.77;6.93;;;15.30;85.30;;;-142.21;100.00;112049.66;5051159;28;20482;-71
2022/09/26 02:10:33;;;;;;;8.40;6.30;;;15.30;84.40;;;-142.21;100.00;112049.66;5050373;28;20435;-70
2022/09/26 02:13:09;;;;;;;9.07;6.83;;;15.20;84.40;;;-142.21;100.00;112049.66;5052315;28;20431;-71
2022/09/26 02:15:39;;;;;;;9.20;6.90;;;15.10;84.60;;;-142.21;100.00;112049.66;5050915;28;21011;-71
2022/09/26 02:18:19;;;;;;;8.60;6.50;;;15.10;84.60;;;-142.21;100.00;112049.66;5050783;28;20456;-71
2022/09/26 02:20:54;;;;;;;7.63;6.57;;;15.10;84.60;;;-142.21;100.00;112049.66;5050876;28;20831;-72
2022/09/26 02:23:22;;;;;;;7.27;6.13;;;15.10;84.80;;;-142.21;100.00;112049.66;5049660;28;20451;-71
2022/09/26 02:25:49;;;;;;;11.10;6.37;;;15.10;84.40;;;-142.21;100.00;112049.66;5050325;28;20452;-70
2022/09/26 02:28:16;;;;;;;8.30;6.07;;;15.20;84.10;;;-142.21;100.00;112049.66;5049796;28;20452;-70
2022/09/26 02:30:48;;;;;;;7.50;6.17;;;15.10;83.90;;;-142.21;100.00;112049.66;5048911;28;20448;-70
2022/09/26 02:33:17;;;;;;;7.23;5.83;;;15.10;83.90;;;-142.21;100.00;112049.66;5048998;28;20449;-70
2022/09/26 02:35:57;;;;;;;6.83;5.97;;;15.20;83.80;;;-142.21;100.00;112049.66;5050778;28;20441;-71
2022/09/26 02:38:27;;;;;;;7.90;6.10;;;15.20;83.90;;;-142.21;100.00;112049.66;5050515;28;20432;-70
2022/09/26 02:41:05;;;;;;;7.50;6.10;;;15.20;83.70;;;-142.21;100.00;112049.66;5050753;28;20464;-70
2022/09/26 02:44:03;;;;;;;6.87;5.97;;;15.20;83.50;;;-142.21;100.00;112049.66;5030541;28;20425;-70
2022/09/26 02:47:10;;;;;;;6.67;5.97;;;15.20;83.50;;;-142.21;100.00;112049.66;5031016;28;20425;-70
2022/09/26 02:50:17;;;;;;;8.00;6.80;;;15.10;83.60;;;-142.21;100.00;112049.66;5043682;28;20454;-71
2022/09/26 02:53:00;;;;;;;8.43;6.17;;;15.00;83.80;;;-142.21;100.00;112049.66;5050976;28;20425;-71
2022/09/26 02:55:39;;;;;;;7.97;6.03;;;15.00;83.90;;;-142.21;100.00;112049.66;5049650;28;20432;-71
2022/09/26 02:58:21;;;;;;;9.47;6.47;;;15.00;83.90;;;-142.21;100.00;112049.66;5050176;28;20494;-71
2022/09/26 03:01:01;;;;;;;8.97;6.67;;;15.00;83.90;;;-142.21;100.00;112049.66;5047238;28;20484;-71
2022/09/26 03:03:36;;;;;;;8.33;6.07;;;15.00;84.00;;;-142.21;100.00;112049.66;5049753;28;20428;-71
2022/09/26 03:06:13;;;;;;;9.93;6.57;;;15.00;83.80;;;-142.21;100.00;112049.66;5050391;28;20442;-70
2022/09/26 03:08:46;;;;;;;8.33;6.20;;;15.10;84.30;;;-142.21;100.00;112049.66;5050829;28;20432;-71
2022/09/26 03:11:20;;;;;;;7.50;6.17;;;15.00;83.30;;;-142.21;100.00;112049.66;5050039;28;20424;-71
2022/09/26 03:13:51;;;;;;;9.83;6.17;;;15.00;83.30;;;-142.21;100.00;112049.66;5050531;28;20424;-70
2022/09/26 03:16:21;;;;;;;8.07;6.30;;;15.00;83.50;;;-142.21;100.00;112049.66;5050242;28;20841;-71
2022/09/26 03:18:55;;;;;;;8.57;6.40;;;14.90;83.40;;;-142.21;100.00;112049.66;5050635;28;20538;-71
2022/09/26 03:21:25;;;;;;;6.80;5.80;;;14.90;83.60;;;-142.21;100.00;112049.66;5050110;28;20470;-71
2022/09/26 03:23:55;;;;;;;7.90;6.17;;;14.80;83.60;;;-142.21;100.00;112049.66;5049229;28;20519;-70
2022/09/26 03:26:26;;;;;;;9.80;6.80;;;14.90;83.60;;;-142.21;100.00;112049.66;5049753;28;20495;-70
2022/09/26 03:28:55;;;;;;;10.63;6.70;;;14.90;83.60;;;-142.21;100.00;112049.66;5050609;28;20841;-70
2022/09/26 03:31:24;;;;;;;9.10;7.33;;;14.90;83.80;;;-142.21;100.00;112049.66;5049779;28;20494;-72
2022/09/26 03:33:51;;;;;;;11.67;7.87;;;14.80;84.00;;;-142.21;100.00;112049.66;5050258;28;20502;-72
2022/09/26 03:36:25;;;;;;;9.27;6.80;;;14.80;84.30;;;-142.21;100.00;112049.66;5049947;28;20852;-72
2022/09/26 03:38:52;;;;;;;9.10;7.23;;;14.80;84.30;;;-142.21;100.00;112049.66;5051435;28;20847;-71
2022/09/26 03:41:19;;;;;;;12.23;7.47;;;14.80;84.40;;;-142.21;100.00;112049.66;5053009;28;20479;-71
2022/09/26 03:43:46;;;;;;;9.80;6.90;;;14.80;84.30;;;-142.21;100.00;112049.66;5053631;28;20448;-71
2022/09/26 03:46:14;;;;;;;12.60;7.57;;;14.90;84.30;;;-142.21;100.00;112049.66;5052691;28;20448;-71
2022/09/26 03:48:42;;;;;;;8.70;6.77;;;14.90;84.10;;;-142.21;100.00;112049.66;5053726;28;20536;-71
2022/09/26 03:51:12;;;;;;;8.47;7.43;;;14.90;83.90;;;-142.21;100.00;112049.66;5052579;28;20448;-71
2022/09/26 03:53:44;;;;;;;8.27;7.03;;;14.90;83.90;;;-142.21;100.00;112049.66;5053903;28;20433;-71
2022/09/26 03:56:14;;;;;;;8.37;6.67;;;14.90;83.70;;;-142.21;100.00;112049.66;5052635;28;20954;-71
2022/09/26 03:58:43;;;;;;;13.03;6.87;;;14.90;83.50;;;-142.21;100.00;112049.66;5053393;28;20829;-71
2022/09/26 04:01:14;;;;;;;11.83;7.00;;;14.90;83.20;;;-142.21;100.00;112049.66;5052335;28;20480;-72
2022/09/26 04:03:43;;;;;;;8.07;6.63;;;14.80;83.10;;;-142.21;100.00;112049.66;5052879;28;20491;-72
2022/09/26 04:06:11;;;;;;;7.10;6.40;;;14.80;83.80;;;-142.21;100.00;112049.66;5052257;28;20531;-72
2022/09/26 04:08:41;;;;;;;8.57;6.53;;;14.80;82.90;;;-142.21;100.00;112049.66;5053463;28;20447;-71
2022/09/26 04:11:12;;;;;;;7.10;6.23;;;14.80;82.90;;;-142.21;100.00;112049.66;5052017;28;20432;-72
2022/09/26 04:13:40;;;;;;;8.93;6.00;;;14.80;82.50;;;-142.21;100.00;112049.66;5053377;28;20444;-71
2022/09/26 04:16:08;;;;;;;10.37;6.93;;;14.80;82.30;;;-142.21;100.00;112049.66;5051953;28;20450;-71
2022/09/26 04:18:36;;;;;;;8.80;6.53;;;14.70;82.40;;;-142.21;100.00;112049.66;5053375;28;20459;-71
2022/09/26 04:21:06;;;;;;;8.97;6.83;;;14.60;82.40;;;-142.21;100.00;112049.66;5052706;28;20436;-70
2022/09/26 04:23:37;;;;;;;9.97;6.90;;;14.50;83.00;;;-142.21;100.00;112049.66;5052885;28;20432;-70
2022/09/26 04:26:08;;;;;;;10.43;6.57;;;14.40;84.10;;;-142.21;100.00;112049.66;5051874;28;20450;-70
2022/09/26 04:28:37;;;;;;;9.33;6.13;;;14.30;83.70;;;-142.21;100.00;112049.66;5053024;28;20440;-71
2022/09/26 04:31:07;;;;;;;10.60;6.60;;;14.30;83.70;;;-142.21;100.00;112049.66;5052125;28;20956;-71
2022/09/26 04:33:34;;;;;;;9.17;6.70;;;14.40;83.20;;;-142.21;100.00;112049.66;5052745;28;20491;-70
2022/09/26 04:36:04;;;;;;;8.57;6.27;;;14.40;83.10;;;-142.21;100.00;112049.66;5052610;28;20444;-70
2022/09/26 04:38:32;;;;;;;8.40;6.40;;;14.40;82.90;;;-142.21;100.00;112049.66;5053086;28;20449;-71
2022/09/26 04:41:06;;;;;;;8.30;5.47;;;14.40;82.50;;;-142.21;100.00;112049.66;5052394;28;20462;-70
2022/09/26 04:43:34;;;;;;;9.40;6.07;;;14.40;82.70;;;-142.21;100.00;112049.66;5052556;28;20444;-69
2022/09/26 04:46:05;;;;;;;10.37;6.40;;;14.40;82.70;;;-142.21;100.00;112049.66;5052179;28;20441;-71
2022/09/26 04:48:32;;;;;;;6.50;5.73;;;14.40;82.20;;;-142.21;100.00;112049.66;5052579;28;20516;-70
2022/09/26 04:51:03;;;;;;;7.23;5.90;;;14.40;81.50;;;-142.21;100.00;112049.66;5052120;28;20894;-71
2022/09/26 04:53:31;;;;;;;6.00;5.40;;;14.40;81.10;;;-142.21;100.00;112049.66;5052578;28;20429;-70
2022/09/26 04:55:58;;;;;;;6.23;5.60;;;14.40;80.70;;;-142.21;100.00;112049.66;5052183;28;20826;-70
2022/09/26 04:58:27;;;;;;;7.40;5.23;;;14.40;80.70;;;-142.21;100.00;112049.66;5051883;28;20448;-70
2022/09/26 05:00:54;;;;;;;6.40;5.30;;;14.40;80.50;;;-142.21;100.00;112049.66;5051528;28;20551;-70
2022/09/26 05:03:21;;;;;;;6.90;5.20;;;14.40;80.40;;;-142.21;100.00;112049.66;5047540;28;20567;-70
2022/09/26 05:05:49;;;;;;;7.93;6.00;;;14.40;80.10;;;-142.21;100.00;112049.66;5051497;28;20507;-69
2022/09/26 05:08:17;;;;;;;6.60;5.80;;;14.30;80.40;;;-142.21;100.00;112049.66;5038281;28;20466;-70
2022/09/26 05:10:51;;;;;;;6.70;5.90;;;14.30;80.60;;;-142.21;100.00;112049.66;5052022;28;20444;-71
2022/09/26 05:13:19;;;;;;;9.00;5.27;;;14.20;80.50;;;-142.21;100.00;112049.66;5036313;28;20526;-70
2022/09/26 05:15:52;;;;;;;6.00;5.40;;;14.10;80.60;;;-142.21;100.00;112049.66;5051955;28;20816;-70
2022/09/26 05:18:19;;;;;;;5.43;4.93;;;14.10;80.60;;;-142.21;100.00;112049.66;5051316;28;20543;-72
2022/09/26 05:20:48;;;;;;;7.03;4.53;;;14.10;80.40;;;-142.21;100.00;112049.66;5051705;28;21005;-70
2022/09/26 05:26:18;;;;;;;5.27;4.77;;;14.20;80.20;;;-142.21;100.00;112049.66;5051156;28;20487;-71
2022/09/26 05:26:21;;;;;;;5.33;4.20;;;14.10;79.80;;;-142.21;100.00;112049.66;5050465;28;20796;-71
2022/09/26 05:28:51;;;;;;;5.20;4.20;;;14.10;79.80;;;-142.21;100.00;112049.66;5051466;28;20785;-70
2022/09/26 05:31:22;;;;;;;4.50;4.10;;;14.10;79.50;;;-142.21;100.00;112049.66;5051274;28;20559;-70
2022/09/26 05:33:50;;;;;;;6.17;4.30;;;14.10;79.40;;;-142.21;100.00;112049.66;5052280;28;20488;-70
2022/09/26 05:36:18;;;;;;;4.33;3.93;;;14.10;79.40;;;-142.21;100.00;112049.66;5050877;28;20444;-70
2022/09/26 05:38:45;;;;;;;4.30;3.90;;;14.10;79.70;;;-142.21;100.00;112049.66;5051747;28;20510;-70
2022/09/26 05:41:13;;;;;;;5.67;4.63;;;14.10;78.90;;;-142.21;100.00;112049.66;5050575;28;20527;-70
2022/09/26 05:43:40;;;;;;;4.90;4.40;;;14.00;78.90;;;-142.21;100.00;112049.66;5051195;28;21011;-70
2022/09/26 05:46:10;;;;;;;5.67;4.10;;;14.00;79.10;;;-142.21;100.00;112049.66;5050207;28;20460;-71
2022/09/26 05:48:40;;;;;;;5.17;4.27;;;14.00;79.00;;;-142.21;100.00;112049.66;5051366;28;20448;-70
2022/09/26 05:51:11;;;;;;;5.10;4.53;;;14.00;78.90;;;-142.21;100.00;112049.66;5051054;28;20441;-71
2022/09/26 05:53:40;;;;;;;7.87;4.97;;;14.00;78.80;;;-142.21;100.00;112049.66;5037469;28;20803;-70
2022/09/26 05:56:09;;;;;;;5.23;4.73;;;14.00;78.80;;;-142.21;100.00;112049.66;5050574;28;20437;-70
2022/09/26 05:58:38;;;;;;;4.80;4.30;;;14.00;79.00;;;-142.21;100.00;112049.66;5051314;28;20479;-70
2022/09/26 06:01:08;;;;;;;5.30;4.63;;;14.00;79.20;;;-142.21;100.00;112049.66;5049363;28;20480;-70
2022/09/26 06:03:35;;;;;;;7.67;5.00;;;14.10;79.10;;;-142.21;100.00;112049.66;5050920;28;20476;-70
2022/09/26 06:06:07;;;;;;;5.40;4.70;;;14.10;79.10;;;-142.21;100.00;112049.66;5050575;28;20463;-70
2022/09/26 06:08:37;;;;;;;6.47;4.77;;;14.10;79.60;;;-142.21;100.00;112049.66;5051414;28;20559;-70
2022/09/26 06:11:11;;;;;;;5.13;4.63;;;14.10;80.20;;;-142.21;100.00;112049.66;5050605;28;20440;-70
2022/09/26 06:13:39;;;;;;;5.77;4.80;;;14.10;80.70;;;-142.21;100.00;112049.66;5050870;28;20428;-70
2022/09/26 06:16:10;;;;;;;5.07;4.57;;;14.00;81.20;;;-142.21;100.00;112049.66;5049816;28;20491;-70
2022/09/26 06:18:39;;;;;;;5.53;5.03;;;14.00;81.30;;;-142.21;100.00;112049.66;5050938;28;20523;-70
2022/09/26 06:21:11;;;;;;;5.60;4.97;;;14.10;81.40;;;-142.21;100.00;112049.66;5049221;28;21014;-70
2022/09/26 06:23:39;;;;;;;6.53;5.37;;;14.10;82.10;;;-142.21;100.00;112049.66;5050445;28;20998;-71
2022/09/26 06:26:09;;;;;;;6.03;4.73;;;14.20;81.50;;;-142.21;100.00;112049.66;5049774;28;20444;-70
2022/09/26 06:28:37;;;;;;;5.97;5.00;;;14.20;81.40;;;-142.21;100.00;112049.66;5050442;28;20543;-72
2022/09/26 06:31:10;;;;;;;6.03;5.13;;;14.30;81.90;;;-142.21;100.00;112049.66;5050701;28;20463;-71
2022/09/26 06:33:37;;;;;;;6.53;5.10;;;14.30;82.00;;;-142.21;100.00;112049.66;5050897;28;20498;-74
2022/09/26 06:36:09;;;;;;;6.00;5.30;;;14.30;82.70;;;-142.21;100.00;112049.66;5048256;28;20534;-70
2022/09/26 06:38:37;;;;;;;8.23;5.20;;;14.30;83.10;;;-142.21;100.00;112049.66;5051105;28;20893;-70
2022/09/26 06:41:06;;;;;;;9.47;5.47;;;14.30;83.30;;;-142.21;100.00;112049.66;5050599;28;20492;-70
2022/09/26 06:43:33;;;;;;;6.47;5.27;;;14.30;83.40;;;-142.21;100.00;112049.66;5050982;28;20480;-71
2022/09/26 06:46:00;;;;;;;7.90;5.13;;;14.50;83.60;;;-142.21;100.00;112049.66;5049190;28;20444;-72
2022/09/26 06:48:30;;;;;;;5.93;4.53;;;14.50;83.00;;;-142.21;100.00;112049.66;5049724;28;20527;-71
2022/09/26 06:50:59;;;;;;;6.80;4.53;;;14.60;82.90;;;-142.21;100.00;112049.66;5050799;28;20539;-71
2022/09/26 06:53:28;;;;;;;7.77;4.77;;;14.70;83.00;;;-142.21;100.00;112049.66;5050431;28;20832;-71
2022/09/26 06:55:55;;;;;;;6.50;4.73;;;14.80;83.00;;;-142.21;100.00;112049.66;5050403;28;20975;-71
2022/09/26 06:58:22;;;;;;;6.17;4.40;;;14.90;82.50;;;-142.21;100.00;112049.66;5049603;28;20990;-71
2022/09/26 07:00:49;;;;;;;6.50;4.60;;;14.90;82.00;;;-142.21;100.00;112049.66;5050394;28;20492;-70
2022/09/26 07:03:16;;;;;;;7.03;4.83;;;14.90;82.40;;;-142.21;100.00;112049.66;5049054;28;20487;-70
2022/09/26 07:05:44;;;;;;;5.47;4.53;;;15.00;82.60;;;-142.21;100.00;112049.66;5049991;28;20507;-72
2022/09/26 07:08:11;;;;;;;7.10;4.63;;;15.00;82.80;;;-142.21;100.00;112049.66;5049789;28;20445;-70
2022/09/26 07:10:40;;;;;;;4.70;4.20;;;15.00;81.90;;;-142.21;100.00;112049.66;5050602;28;20539;-71
2022/09/26 07:13:09;;;;;;;6.27;4.17;;;15.10;82.10;;;-142.21;100.00;112049.66;5050635;28;20531;-71
2022/09/26 07:15:37;;;;;;;3.97;3.43;;;15.20;81.80;;;-142.21;100.00;112049.66;5054501;28;20583;-70
2022/09/26 07:18:06;;;;;;;4.57;3.63;;;15.30;81.60;;;-142.21;100.00;112049.66;5054742;28;20439;-71
2022/09/26 07:20:38;;;;;;;4.60;3.60;;;15.30;81.60;;;-142.21;100.00;112049.66;5054253;28;20498;-70
2022/09/26 07:23:08;;;;;;;5.17;3.27;;;15.40;81.20;;;-142.21;100.00;112049.66;5053473;28;20479;-71
2022/09/26 07:25:37;;;;;;;4.03;3.10;;;15.40;80.30;;;-142.21;100.00;112049.66;5053116;28;20940;-70
2022/09/26 07:28:07;;;;;;;3.07;2.70;;;15.50;81.20;;;-142.21;100.00;112049.66;5053825;28;20444;-71
2022/09/26 07:30:34;;;;;;;4.53;2.90;;;15.60;79.40;;;-142.21;100.00;112049.66;5053987;28;20515;-71
2022/09/26 07:33:04;;;;;;;4.33;2.70;;;15.60;78.90;;;-142.21;100.00;112049.66;5053410;28;20468;-72
2022/09/26 07:35:34;;;;;;;3.00;2.70;;;15.70;79.40;;;-142.21;100.00;112049.66;5054218;28;20502;-72
2022/09/26 07:38:03;;;;;;;4.83;2.83;;;15.80;78.60;;;-142.21;100.00;112049.66;5054328;28;20454;-72
2022/09/26 07:40:32;;;;;;;4.27;3.20;;;15.90;78.10;;;-142.21;100.00;112049.66;5053618;28;20452;-71
2022/09/26 07:43:00;;;;;;;5.80;3.20;;;16.00;77.90;;;-142.21;100.00;112049.66;5053879;28;20895;-71
2022/09/26 07:50:59;;;;;;;4.70;2.33;;;16.20;77.50;;;-142.21;100.00;112049.66;5052713;28;20539;-69
2022/09/26 07:53:28;;;;;;;3.70;2.67;;;16.20;76.50;;;-142.21;100.00;112049.66;5050382;28;20443;-70
2022/09/26 07:56:06;;;;;;;2.70;2.40;;;16.20;76.20;;;-142.21;100.00;112049.66;5053296;28;20444;-71
2022/09/26 07:58:34;;;;;;;2.83;2.50;;;16.20;76.20;;;-142.21;100.00;112049.66;5053056;28;20474;-70
2022/09/26 08:01:03;;;;;;;4.07;2.60;;;16.30;76.00;;;-142.21;100.00;112049.66;5053648;28;20456;-71
2022/09/26 08:03:30;;;;;;;3.03;2.73;;;16.40;76.40;;;-142.21;100.00;112049.66;5053005;28;20476;-71
2022/09/26 08:06:01;;;;;;;3.43;2.57;;;16.50;76.20;;;-142.21;100.00;112049.66;5052634;28;20458;-71
2022/09/26 08:08:30;;;;;;;3.67;3.20;;;16.60;75.60;;;-142.21;100.00;112049.66;5052712;28;20483;-71
2022/09/26 08:10:58;;;;;;;3.33;2.63;;;16.70;75.20;;;-142.21;100.00;112049.66;5052446;28;20944;-70
2022/09/26 08:13:27;;;;;;;3.40;2.87;;;16.70;74.80;;;-142.21;100.00;112049.66;5052783;28;20468;-71
2022/09/26 08:15:55;;;;;;;3.50;2.93;;;16.70;74.50;;;-142.21;100.00;112049.66;5052861;28;20440;-71
2022/09/26 08:18:23;;;;;;;5.50;3.03;;;16.80;75.50;;;-142.21;100.00;112049.66;5051054;28;20444;-72
2022/09/26 08:20:50;;;;;;;4.30;3.10;;;16.80;75.20;;;-142.21;99.70;112049.66;5050810;28;20445;-71
2022/09/26 08:23:18;;;;;;;3.53;2.83;;;16.90;75.50;;;-142.21;98.62;112049.66;5050818;28;20892;-71
2022/09/26 08:25:45;;;;;;;2.97;2.60;;;16.90;73.30;;;-142.21;100.00;112049.66;5049051;28;20805;-70
2022/09/26 08:28:13;;;;;;;3.87;3.10;;;17.00;74.80;;;-142.21;99.36;112049.66;5055095;28;20480;-71
2022/09/26 08:30:43;;;;;;;3.10;2.80;;;17.00;74.30;;;-142.21;100.00;112049.66;5053395;28;20490;-72
2022/09/26 08:33:12;;;;;;;3.97;2.53;;;17.20;75.00;;;-142.21;99.63;112049.66;5052159;28;20446;-72
2022/09/26 08:35:41;;;;;;;3.20;2.90;;;17.30;74.60;;;-142.21;97.80;112049.66;5052341;28;20450;-71
2022/09/26 08:38:09;;;;;;;4.23;2.80;;;17.40;73.40;;;-142.21;98.29;112049.66;5051943;28;20470;-71
2022/09/26 08:40:54;;;;;;;5.20;2.70;;;17.50;73.20;;;-142.21;98.35;112049.66;5051951;28;20456;-72
2022/09/26 08:43:52;;;;;;;3.20;2.63;;;17.60;73.30;;;-142.21;97.56;112049.66;5037757;28;20469;-71
2022/09/26 08:46:42;;;;;;;4.43;3.23;;;17.70;73.00;;;-142.21;96.78;112049.66;5051456;28;20432;-71
2022/09/26 08:49:38;;;;;;;4.47;3.00;;;17.80;72.10;;;-142.21;95.75;112049.66;5051901;28;20441;-71
2022/09/26 08:52:27;;;;;;;3.20;2.73;;;17.90;71.50;;;-142.21;95.00;112049.66;5052834;28;20436;-72
2022/09/26 08:55:01;;;;;;;3.53;2.70;;;18.00;71.30;;;-142.21;94.70;112049.66;5052416;28;20452;-70
2022/09/26 08:57:38;;;;;;;4.80;2.60;;;18.10;71.10;;;-142.21;90.46;112049.66;5051872;28;20460;-71
2022/09/26 09:00:18;;;;;;;3.17;2.70;;;18.00;68.20;;;-142.21;91.57;112049.66;5052175;28;20436;-71
2022/09/26 09:03:02;;;;;;;3.93;2.83;;;18.00;68.90;;;-142.21;90.87;112049.66;5051847;28;20494;-72
2022/09/26 09:05:33;;;;;;;4.47;2.67;;;17.90;68.90;;;-142.21;90.40;112049.66;5032191;28;20516;-72
2022/09/26 09:08:08;;;;;;;3.53;2.60;;;18.00;69.10;;;-142.21;89.06;112049.66;5040265;28;20486;-71
2022/09/26 09:10:47;;;;;;;3.63;2.97;;;18.20;68.40;;;-142.21;89.36;112049.66;5017350;28;20443;-71
2022/09/26 09:13:37;;;;;;;3.10;2.70;;;18.40;68.40;;;-142.21;88.27;112049.66;5051757;28;20434;-71
2022/09/26 09:16:33;;;;;;;2.63;2.43;;;18.40;67.60;;;-142.21;87.90;112049.66;5051763;28;20519;-71
2022/09/26 09:19:11;;;;;;;4.23;3.00;;;18.40;66.10;;;-142.21;88.78;112049.66;5052628;28;20433;-71
2022/09/26 09:21:59;;;;;;;6.80;2.77;;;18.40;67.40;;;-142.21;90.57;112049.66;5052021;28;20440;-71
2022/09/26 09:24:52;;;;;;;3.37;2.40;;;18.50;67.70;;;-142.21;89.78;112049.66;5047811;28;20504;-73
2022/09/26 09:27:39;;;;;;;2.90;2.60;;;18.80;68.00;;;-142.21;86.65;112049.66;5053965;28;20932;-71
2022/09/26 09:30:20;;;;;;;2.77;2.10;;;18.80;66.00;;;-142.21;88.00;112049.66;5051354;28;20436;-72
2022/09/26 09:32:56;;;;;;;2.70;2.50;;;18.70;66.30;;;-142.21;86.55;112049.66;5051474;28;20519;-74
2022/09/26 09:35:37;;;;;;;3.60;2.37;;;18.80;65.70;;;-142.21;85.57;112049.66;5052547;28;20472;-75
2022/09/26 09:38:10;;;;;;;2.27;2.07;;;18.80;64.80;;;-142.21;84.94;112049.66;5053163;28;20433;-76
2022/09/26 09:40:44;;;;;;;2.77;2.33;;;18.70;64.90;;;-142.21;86.50;112049.66;5017918;28;20536;-76
2022/09/26 09:43:25;;;;;;;3.67;2.23;;;18.80;65.50;;;-142.21;85.71;112049.66;5052143;28;20718;-73
2022/09/26 09:45:57;;;;;;;2.83;2.10;;;19.00;65.90;;;-142.21;83.83;112049.66;5020187;28;20451;-77
2022/09/26 09:48:28;;;;;;;2.40;2.20;;;19.20;64.10;;;-142.21;82.72;112049.66;5052483;28;20194;-77
2022/09/26 09:51:09;;;;;;;2.77;2.10;;;19.20;62.90;;;-142.21;82.15;112049.66;5053097;28;20435;-74
2022/09/26 09:54:23;;;;;;;2.93;2.60;;;19.20;63.40;;;-142.21;83.61;112049.66;5052528;28;20216;-74
2022/09/26 09:57:18;;;;;;;5.10;2.30;;;19.20;63.10;;;-142.21;83.44;112049.66;5045681;28;20546;-77
2022/09/26 10:00:04;;;;;;;3.03;2.30;;;19.40;63.30;;;-142.21;81.00;112049.66;5052180;28;20202;-75
2022/09/26 10:02:39;;;;;;;2.57;2.03;;;19.40;62.30;;;-142.21;82.02;112049.66;5052113;28;20324;-78
2022/09/26 10:05:23;;;;;;;5.87;1.90;;;19.20;62.50;;;-142.21;81.38;112049.66;5031976;28;20277;-75
2022/09/26 10:07:56;;;;;;;2.63;2.10;;;19.10;62.00;;;-142.21;83.10;112049.66;5032738;28;20741;-76
2022/09/26 10:10:36;;;;;;;2.47;2.10;;;19.10;63.00;;;-142.21;82.04;112049.66;5051443;28;20455;-69
2022/09/26 10:13:07;;;;;;;3.33;2.37;;;18.90;62.20;;;-142.21;82.30;112049.66;5052295;28;20432;-71
2022/09/26 10:15:39;;;;;;;2.83;2.13;;;18.90;62.00;;;-142.21;82.96;112049.66;5051911;28;20437;-70
2022/09/26 10:18:17;;;;;;;2.60;1.80;;;18.90;63.00;;;-142.21;84.46;112049.66;5051328;28;20271;-72
2022/09/26 10:20:52;;;;;;;3.90;2.10;;;19.00;63.70;;;-142.21;84.44;112049.66;5048393;28;20272;-72
2022/09/26 10:23:27;;;;;;;3.13;1.80;;;19.20;63.60;;;-142.21;82.63;112049.66;5051135;28;20248;-71